Time;durP1;ratioP1;P1;durP2;ratioP2;P2;SDS_P1;SDS_P2;PMS_P1;PMS_P2;Temp;Humidity;BMP_temperature;BMP_pressure;BME280_temperature;BME280_humidity;BME280_pressure;Samples;Min_cycle;Max_cycle;Signal;HPM_P1;HPM_P2
2022/07/16 00:01:50;;;;;;;15.13;3.95;;;16.10;99.90;;;;;;5012857;28;20484;-60
2022/07/16 00:04:15;;;;;;;;;;;15.70;99.90;;;;;;5013307;28;20053;-61
2022/07/16 00:06:43;;;;;;;7.70;2.60;;;15.60;99.90;;;;;;5012575;28;20384;-61
2022/07/16 00:09:10;;;;;;;3.50;1.50;;;15.20;99.90;;;;;;5012365;28;20453;-60
2022/07/16 00:11:35;;;;;;;7.15;1.60;;;14.90;99.90;;;;;;5012879;28;20041;-60
2022/07/16 00:14:01;;;;;;;5.15;1.67;;;14.90;99.90;;;;;;5012717;28;20470;-62
2022/07/16 00:16:27;;;;;;;;;;;15.00;99.90;;;;;;5012818;28;20058;-61
2022/07/16 00:21:36;;;;;;;7.85;2.25;;;14.40;99.90;;;;;;5012458;28;20429;-63
2022/07/16 00:24:02;;;;;;;4.00;1.60;;;14.80;99.90;;;;;;5027593;28;20041;-61
2022/07/16 00:26:28;;;;;;;;;;;14.40;99.90;;;;;;5012964;28;20531;-63
2022/07/16 00:28:53;;;;;;;8.93;2.58;;;15.00;99.90;;;;;;5012524;28;19921;-61
2022/07/16 00:31:19;;;;;;;9.18;1.80;;;14.30;99.90;;;;;;5012445;28;20042;-61
2022/07/16 00:33:45;;;;;;;;;;;14.80;99.90;;;;;;5044361;28;20138;-61
2022/07/16 00:36:10;;;;;;;11.10;3.03;;;14.70;99.90;;;;;;5012162;28;19992;-61
2022/07/16 00:38:36;;;;;;;;;;;14.80;99.90;;;;;;5012911;28;20046;-61
2022/07/16 00:41:02;;;;;;;6.88;2.40;;;14.80;99.90;;;;;;5012227;28;19961;-62
2022/07/16 00:43:27;;;;;;;;;;;14.80;99.90;;;;;;5011383;28;20409;-62
2022/07/16 00:45:53;;;;;;;9.68;2.55;;;14.90;99.90;;;;;;5012333;28;20005;-61
2022/07/16 00:48:19;;;;;;;;;;;14.70;99.90;;;;;;5012550;28;20054;-61
2022/07/16 00:50:44;;;;;;;7.20;2.15;;;14.70;99.90;;;;;;5011986;28;20333;-62
2022/07/16 00:53:10;;;;;;;;;;;14.80;99.90;;;;;;5012334;28;20042;-62
2022/07/16 00:55:37;;;;;;;7.13;2.30;;;14.90;99.90;;;;;;5012057;28;19921;-62
2022/07/16 00:58:03;;;;;;;7.95;2.45;;;15.20;99.90;;;;;;5012344;28;20076;-61
2022/07/16 01:00:29;;;;;;;9.57;2.10;;;14.90;99.90;;;;;;5012348;28;20049;-66
2022/07/16 01:02:56;;;;;;;9.13;2.17;;;15.60;99.90;;;;;;5011879;28;20050;-61
2022/07/16 01:05:22;;;;;;;8.65;2.47;;;15.00;99.90;;;;;;5011807;28;20076;-62
2022/07/16 01:07:48;;;;;;;;;;;14.90;99.90;;;;;;5012522;28;20085;-62
2022/07/16 01:10:14;;;;;;;8.40;2.10;;;15.00;99.90;;;;;;5011963;28;19975;-61
2022/07/16 01:12:41;;;;;;;11.75;2.30;;;14.90;99.90;;;;;;5011679;28;20444;-62
2022/07/16 01:15:07;;;;;;;7.65;2.10;;;15.00;99.90;;;;;;5011816;28;20099;-61
2022/07/16 01:17:33;;;;;;;;;;;14.90;99.90;;;;;;5012264;28;20096;-61
2022/07/16 01:19:59;;;;;;;9.18;2.65;;;14.70;99.90;;;;;;5011660;28;20368;-63
2022/07/16 01:22:25;;;;;;;;;;;14.70;99.90;;;;;;5012304;28;20049;-62
2022/07/16 01:24:52;;;;;;;4.40;2.00;;;14.60;99.90;;;;;;5011692;28;19968;-62
2022/07/16 01:27:19;;;;;;;5.97;2.50;;;14.70;99.90;;;;;;5011702;28;20046;-62
2022/07/16 01:29:45;;;;;;;7.55;2.42;;;14.70;99.90;;;;;;5015130;28;20045;-62
2022/07/16 01:32:11;;;;;;;8.00;2.50;;;14.90;99.90;;;;;;5015580;28;20061;-62
2022/07/16 01:34:37;;;;;;;;;;;14.80;99.90;;;;;;5015958;28;20056;-62
2022/07/16 01:37:06;;;;;;;7.63;2.58;;;14.80;99.90;;;;;;5015763;28;19928;-62
2022/07/16 01:39:35;;;;;;;10.57;2.65;;;14.40;99.90;;;;;;5015733;28;20068;-63
2022/07/16 01:42:04;;;;;;;4.90;2.05;;;14.10;99.90;;;;;;5015457;28;20058;-63
2022/07/16 01:44:32;;;;;;;7.40;2.88;;;14.40;99.90;;;;;;5015460;28;20050;-62
2022/07/16 01:46:59;;;;;;;10.23;3.30;;;15.20;99.90;;;;;;5015323;28;20089;-61
2022/07/16 01:49:29;;;;;;;10.43;2.45;;;14.30;99.90;;;;;;5015435;28;20054;-64
2022/07/16 01:51:55;;;;;;;5.93;2.60;;;14.10;99.90;;;;;;5015587;28;20406;-62
2022/07/16 01:54:20;;;;;;;9.38;2.97;;;13.90;99.90;;;;;;5015301;28;20046;-62
2022/07/16 01:56:46;;;;;;;;;;;14.20;99.90;;;;;;5015688;28;20050;-62
2022/07/16 01:59:11;;;;;;;4.40;2.20;;;14.00;99.90;;;;;;5015164;28;19959;-62
2022/07/16 02:01:37;;;;;;;9.65;2.10;;;14.30;99.90;;;;;;5015076;28;20089;-65
2022/07/16 02:04:03;;;;;;;7.95;2.40;;;13.90;99.90;;;;;;5014999;28;20049;-62
2022/07/16 02:06:29;;;;;;;;;;;14.30;99.90;;;;;;5015564;28;20041;-63
2022/07/16 02:08:55;;;;;;;3.67;2.00;;;14.00;99.90;;;;;;5014960;28;19980;-64
2022/07/16 02:11:20;;;;;;;;;;;13.70;99.90;;;;;;5030823;28;20395;-63
2022/07/16 02:13:46;;;;;;;7.00;2.38;;;13.80;99.90;;;;;;5014853;28;19921;-63
2022/07/16 02:16:11;;;;;;;6.43;2.50;;;13.90;99.90;;;;;;5014802;28;20041;-63
2022/07/16 02:18:37;;;;;;;;;;;14.00;99.90;;;;;;5015659;28;20059;-63
2022/07/16 02:21:03;;;;;;;11.80;2.25;;;13.80;99.90;;;;;;5014836;28;19929;-62
2022/07/16 02:23:29;;;;;;;;;;;13.70;99.90;;;;;;5015113;28;20046;-62
2022/07/16 02:25:55;;;;;;;10.95;2.97;;;13.70;99.90;;;;;;5014859;28;19925;-65
2022/07/16 02:28:20;;;;;;;;;;;14.20;99.90;;;;;;5015101;28;20086;-63
2022/07/16 02:30:49;;;;;;;8.88;3.03;;;14.00;99.90;;;;;;5014628;28;19928;-63
2022/07/16 02:33:19;;;;;;;13.93;2.88;;;13.90;99.90;;;;;;5014617;28;20058;-63
2022/07/16 02:35:45;;;;;;;9.80;3.03;;;13.90;99.90;;;;;;5014740;28;20049;-65
2022/07/16 02:38:12;;;;;;;7.28;3.38;;;13.80;99.90;;;;;;5014519;28;20077;-63
2022/07/16 02:40:39;;;;;;;7.53;2.85;;;14.00;99.90;;;;;;5013296;28;20062;-63
2022/07/16 02:43:07;;;;;;;8.52;3.00;;;13.70;99.90;;;;;;5014277;28;20049;-64
2022/07/16 02:45:39;;;;;;;10.45;2.63;;;13.80;99.90;;;;;;5014194;28;20053;-64
2022/07/16 02:48:05;;;;;;;5.72;2.38;;;14.00;99.90;;;;;;5014532;28;20111;-63
2022/07/16 02:50:31;;;;;;;6.10;2.72;;;14.00;99.90;;;;;;5014569;28;20054;-63
2022/07/16 02:52:57;;;;;;;6.88;2.80;;;13.90;99.90;;;;;;5014391;28;20048;-62
2022/07/16 02:55:23;;;;;;;9.50;2.53;;;13.90;99.90;;;;;;5014198;28;20050;-63
2022/07/16 02:57:49;;;;;;;6.97;2.95;;;13.60;99.90;;;;;;5014045;28;20540;-63
2022/07/16 03:00:16;;;;;;;11.77;2.65;;;14.10;99.90;;;;;;5014038;28;20137;-64
2022/07/16 03:02:43;;;;;;;11.85;3.08;;;13.80;99.90;;;;;;5014119;28;20068;-63
2022/07/16 03:05:09;;;;;;;17.55;3.33;;;13.90;99.90;;;;;;5014079;28;20390;-63
2022/07/16 03:07:36;;;;;;;10.30;2.72;;;13.70;99.90;;;;;;5013983;28;20111;-64
2022/07/16 03:10:02;;;;;;;14.63;3.53;;;13.70;99.90;;;;;;5014002;28;20058;-63
2022/07/16 03:12:28;;;;;;;14.20;3.15;;;14.00;99.90;;;;;;5028881;28;20058;-63
2022/07/16 03:14:53;;;;;;;14.40;3.22;;;14.10;99.90;;;;;;5014037;28;20052;-62
2022/07/16 03:17:19;;;;;;;;;;;14.00;99.90;;;;;;5014150;28;20378;-63
2022/07/16 03:19:45;;;;;;;9.35;2.60;;;14.30;99.90;;;;;;5014021;28;19921;-64
2022/07/16 03:22:11;;;;;;;;;;;14.30;99.90;;;;;;5013988;28;20124;-63
2022/07/16 03:24:36;;;;;;;8.20;2.13;;;14.10;99.90;;;;;;5013583;28;20032;-62
2022/07/16 03:27:02;;;;;;;;;;;14.20;99.90;;;;;;5013914;28;20049;-63
2022/07/16 03:29:28;;;;;;;12.00;2.50;;;14.30;99.90;;;;;;5013469;28;19928;-63
2022/07/16 03:31:53;;;;;;;5.40;1.85;;;14.20;99.90;;;;;;5013475;28;20087;-64
2022/07/16 03:34:19;;;;;;;9.40;2.17;;;13.80;99.90;;;;;;5013429;28;20157;-63
2022/07/16 03:36:45;;;;;;;6.75;2.33;;;14.10;99.90;;;;;;5013428;28;20041;-63
2022/07/16 03:39:11;;;;;;;4.15;1.73;;;13.80;99.90;;;;;;5013253;28;20046;-65
2022/07/16 03:41:38;;;;;;;8.38;1.83;;;14.00;99.90;;;;;;5013235;28;20552;-63
2022/07/16 03:44:06;;;;;;;6.78;1.60;;;14.10;99.90;;;;;;5013047;28;20050;-63
2022/07/16 03:46:32;;;;;;;6.97;2.20;;;14.00;99.90;;;;;;5013280;28;20049;-63
2022/07/16 03:48:58;;;;;;;6.13;2.17;;;13.80;99.90;;;;;;5013245;28;20058;-63
2022/07/16 03:51:24;;;;;;;9.38;2.13;;;14.00;99.90;;;;;;5044562;28;20057;-62
2022/07/16 03:53:50;;;;;;;5.15;2.03;;;14.20;99.90;;;;;;5013053;28;20045;-62
2022/07/16 03:56:16;;;;;;;;;;;14.10;99.90;;;;;;5013279;28;20494;-63
2022/07/16 03:58:42;;;;;;;9.13;2.22;;;14.20;99.90;;;;;;5013199;28;19928;-62
2022/07/16 04:01:08;;;;;;;10.68;2.35;;;14.40;99.90;;;;;;5012934;28;20099;-62
2022/07/16 04:03:36;;;;;;;11.98;2.30;;;14.20;99.90;;;;;;5012933;28;20058;-63
2022/07/16 04:06:02;;;;;;;6.20;2.00;;;14.10;99.90;;;;;;5012952;28;20046;-63
2022/07/16 04:08:28;;;;;;;11.05;2.58;;;14.30;99.90;;;;;;5012582;28;20058;-61
2022/07/16 04:10:53;;;;;;;12.65;2.53;;;14.20;99.90;;;;;;5012793;28;20061;-61
2022/07/16 04:13:19;;;;;;;;;;;14.40;99.90;;;;;;5013224;28;20042;-62
2022/07/16 04:15:46;;;;;;;9.07;2.25;;;14.50;99.90;;;;;;5012948;28;19979;-62
2022/07/16 04:18:13;;;;;;;6.63;2.03;;;14.50;99.90;;;;;;5028089;28;20050;-62
2022/07/16 04:20:39;;;;;;;6.03;1.67;;;14.50;99.90;;;;;;5012702;28;20049;-61
2022/07/16 04:23:05;;;;;;;5.25;1.60;;;15.10;99.90;;;;;;5012543;28;20045;-62
2022/07/16 04:25:30;;;;;;;;;;;14.50;99.90;;;;;;5012798;28;20130;-63
2022/07/16 04:27:56;;;;;;;6.50;1.60;;;14.70;99.90;;;;;;5044534;28;20395;-63
2022/07/16 04:30:22;;;;;;;8.32;1.50;;;15.10;99.90;;;;;;5012608;28;20061;-63
2022/07/16 04:32:48;;;;;;;6.03;1.88;;;14.30;99.90;;;;;;5012358;28;20172;-62
2022/07/16 04:35:14;;;;;;;8.93;1.55;;;13.90;99.90;;;;;;5012387;28;20049;-62
2022/07/16 04:37:40;;;;;;;8.70;1.70;;;14.00;99.90;;;;;;5012460;28;20038;-63
2022/07/16 04:40:08;;;;;;;9.82;2.78;;;14.30;99.90;;;;;;5012453;28;20485;-63
2022/07/16 04:42:36;;;;;;;8.45;1.40;;;14.40;99.90;;;;;;5012663;28;20038;-63
2022/07/16 04:45:02;;;;;;;5.07;1.80;;;14.20;99.90;;;;;;5012264;28;20417;-63
2022/07/16 04:47:28;;;;;;;10.90;1.80;;;14.30;99.90;;;;;;5012198;28;20453;-63
2022/07/16 04:49:54;;;;;;;8.07;1.58;;;14.10;99.90;;;;;;5012334;28;20041;-64
2022/07/16 04:52:19;;;;;;;10.95;2.13;;;14.00;99.90;;;;;;5011991;28;20509;-63
2022/07/16 04:54:45;;;;;;;8.55;1.50;;;14.20;99.90;;;;;;5012043;28;20041;-62
2022/07/16 04:57:11;;;;;;;7.10;1.50;;;13.90;99.90;;;;;;5012034;28;20127;-63
2022/07/16 04:59:36;;;;;;;13.00;2.17;;;13.90;99.90;;;;;;5027493;28;20048;-63
2022/07/16 05:04:46;;;;;;;12.75;1.70;;;13.70;99.90;;;;;;5011650;28;20506;-62
2022/07/16 05:07:12;;;;;;;3.75;1.27;;;14.30;99.90;;;;;;5011890;28;20049;-63
2022/07/16 05:09:37;;;;;;;5.28;1.58;;;14.20;99.90;;;;;;5026884;28;20057;-63
2022/07/16 05:12:03;;;;;;;4.43;1.40;;;14.00;99.90;;;;;;5043728;28;20133;-64
2022/07/16 05:14:29;;;;;;;12.85;1.50;;;14.30;99.90;;;;;;5011822;28;20120;-63
2022/07/16 05:16:56;;;;;;;8.65;1.33;;;14.50;99.90;;;;;;5011981;28;20054;-62
2022/07/16 05:19:23;;;;;;;10.30;2.22;;;14.40;99.90;;;;;;5011717;28;20418;-65
2022/07/16 05:21:48;;;;;;;7.68;1.92;;;14.70;99.90;;;;;;5011654;28;20125;-63
2022/07/16 05:24:14;;;;;;;10.27;1.85;;;14.60;99.90;;;;;;5011960;28;20465;-63
2022/07/16 05:26:40;;;;;;;7.80;1.83;;;14.50;99.90;;;;;;5011858;28;20092;-61
2022/07/16 05:29:05;;;;;;;7.40;1.35;;;15.10;99.90;;;;;;5011848;28;20081;-63
2022/07/16 05:31:31;;;;;;;6.85;1.40;;;14.70;99.90;;;;;;5011732;28;20129;-63
2022/07/16 05:33:57;;;;;;;8.95;1.45;;;14.80;99.90;;;;;;5011760;28;20145;-64
2022/07/16 05:36:23;;;;;;;6.63;1.40;;;15.10;99.90;;;;;;5011596;28;20379;-64
2022/07/16 05:38:48;;;;;;;8.80;1.55;;;15.00;99.90;;;;;;5011827;28;20048;-64
2022/07/16 05:41:14;;;;;;;10.85;1.30;;;15.00;99.90;;;;;;5026816;28;20050;-63
2022/07/16 05:43:40;;;;;;;;;;;15.00;99.90;;;;;;5012087;28;20042;-62
2022/07/16 05:46:05;;;;;;;8.10;1.80;;;15.30;99.90;;;;;;5043462;28;19968;-64
2022/07/16 05:48:31;;;;;;;9.10;1.70;;;14.90;99.90;;;;;;5011523;28;20045;-63
2022/07/16 05:50:56;;;;;;;16.10;2.17;;;14.90;99.90;;;;;;5011422;28;20045;-61
2022/07/16 05:53:22;;;;;;;8.13;1.30;;;15.10;99.90;;;;;;5011349;28;20104;-64
2022/07/16 05:55:48;;;;;;;6.20;1.30;;;15.00;99.90;;;;;;5011672;28;20391;-63
2022/07/16 05:58:13;;;;;;;;;;;15.20;99.90;;;;;;5011807;28;20409;-62
2022/07/16 06:00:39;;;;;;;7.15;1.20;;;15.00;99.90;;;;;;5011559;28;19922;-64
2022/07/16 06:03:07;;;;;;;4.70;1.20;;;15.40;99.90;;;;;;5011413;28;20042;-63
2022/07/16 06:05:33;;;;;;;4.90;1.10;;;15.10;99.90;;;;;;5005541;28;20054;-64
2022/07/16 06:07:59;;;;;;;5.05;1.20;;;15.20;99.90;;;;;;5022538;28;20098;-63
2022/07/16 06:10:25;;;;;;;3.97;1.10;;;15.20;99.90;;;;;;5019636;28;20485;-62
2022/07/16 06:12:50;;;;;;;2.20;1.15;;;15.20;99.90;;;;;;5017732;28;20061;-62
2022/07/16 06:15:16;;;;;;;;;;;15.40;99.90;;;;;;5023689;28;20155;-62
2022/07/16 06:17:42;;;;;;;7.00;1.30;;;15.70;99.90;;;;;;5022946;28;19978;-66
2022/07/16 06:20:09;;;;;;;3.92;1.20;;;15.60;99.90;;;;;;5018977;28;20049;-64
2022/07/16 06:22:35;;;;;;;4.30;1.60;;;15.50;99.90;;;;;;5022615;28;20050;-63
2022/07/16 06:25:01;;;;;;;7.20;1.30;;;15.70;99.90;;;;;;5024632;28;20158;-64
2022/07/16 06:27:27;;;;;;;5.20;1.15;;;15.30;99.90;;;;;;5015808;28;20125;-63
2022/07/16 06:29:53;;;;;;;10.32;1.48;;;15.60;99.90;;;;;;5020728;28;20132;-66
2022/07/16 06:32:18;;;;;;;4.90;1.13;;;15.40;99.90;;;;;;5023744;28;20073;-64
2022/07/16 06:34:44;;;;;;;;;;;15.50;99.90;;;;;;5022707;28;20484;-64
2022/07/16 06:37:10;;;;;;;18.40;1.63;;;15.60;99.90;;;;;;5021998;28;19936;-64
2022/07/16 06:39:35;;;;;;;;;;;15.00;99.90;;;;;;5020346;28;20049;-66
2022/07/16 06:42:01;;;;;;;3.70;1.98;;;14.90;99.90;;;;;;5016869;28;19965;-63
2022/07/16 06:44:27;;;;;;;7.30;1.75;;;15.20;99.90;;;;;;5019891;28;20057;-64
2022/07/16 06:46:53;;;;;;;8.13;1.80;;;15.00;99.90;;;;;;5022613;28;20045;-64
2022/07/16 06:49:19;;;;;;;7.38;1.35;;;15.50;99.90;;;;;;5019665;28;20049;-64
2022/07/16 06:51:45;;;;;;;5.72;1.42;;;15.70;99.90;;;;;;5020056;28;20112;-63
2022/07/16 06:54:14;;;;;;;3.78;1.35;;;15.80;99.90;;;;;;5023494;28;20053;-64
2022/07/16 06:56:39;;;;;;;6.13;1.35;;;15.70;99.90;;;;;;5017198;28;20485;-65
2022/07/16 06:59:05;;;;;;;;;;;16.20;99.90;;;;;;5020622;28;20140;-64
2022/07/16 07:01:30;;;;;;;5.18;1.88;;;16.10;99.90;;;;;;5021101;28;20373;-62
2022/07/16 07:03:56;;;;;;;6.38;1.23;;;16.30;99.90;;;;;;5021962;28;20113;-63
2022/07/16 07:06:22;;;;;;;6.90;1.30;;;16.40;99.90;;;;;;5022910;28;20171;-63
2022/07/16 07:08:47;;;;;;;;;;;16.30;99.90;;;;;;5019890;28;20105;-64
2022/07/16 07:11:13;;;;;;;7.13;1.88;;;16.00;99.90;;;;;;5018957;28;20350;-64
2022/07/16 07:13:39;;;;;;;3.00;1.15;;;16.10;99.90;;;;;;5019436;28;20195;-62
2022/07/16 07:16:05;;;;;;;4.47;1.02;;;15.70;99.90;;;;;;5018029;28;20065;-63
2022/07/16 07:18:32;;;;;;;4.53;1.20;;;15.70;99.90;;;;;;5016366;28;20041;-62
2022/07/16 07:21:00;;;;;;;8.00;1.40;;;15.80;99.90;;;;;;5017141;28;20162;-62
2022/07/16 07:23:26;;;;;;;9.40;1.65;;;16.90;99.90;;;;;;5017895;28;20184;-64
2022/07/16 07:25:52;;;;;;;;;;;16.10;99.90;;;;;;5019080;28;20046;-61
2022/07/16 07:28:18;;;;;;;9.02;1.30;;;15.90;99.90;;;;;;5020245;28;19925;-63
2022/07/16 07:30:44;;;;;;;6.38;1.30;;;16.50;99.90;;;;;;5020344;28;20178;-64
2022/07/16 07:33:10;;;;;;;6.85;1.23;;;16.60;99.90;;;;;;5021216;28;20079;-62
2022/07/16 07:35:35;;;;;;;8.63;1.55;;;16.90;99.90;;;;;;5021273;28;20143;-61
2022/07/16 07:38:01;;;;;;;;;;;16.70;99.90;;;;;;5019558;28;20600;-61
2022/07/16 07:40:28;;;;;;;6.70;1.50;;;16.90;99.90;;;;;;5017491;28;19925;-64
2022/07/16 07:42:54;;;;;;;7.07;1.40;;;16.80;99.90;;;;;;5023632;28;20059;-62
2022/07/16 07:45:20;;;;;;;;;;;16.50;99.90;;;;;;5020881;28;20494;-62
2022/07/16 07:47:46;;;;;;;5.88;1.17;;;16.30;99.90;;;;;;5022168;28;20366;-62
2022/07/16 07:50:11;;;;;;;;;;;16.40;99.90;;;;;;5020093;28;20077;-61
2022/07/16 07:52:37;;;;;;;6.80;1.15;;;16.30;99.90;;;;;;5022354;28;19944;-61
2022/07/16 07:55:03;;;;;;;;;;;16.50;99.90;;;;;;5020221;28;20049;-62
2022/07/16 07:57:29;;;;;;;8.77;1.60;;;16.70;99.90;;;;;;5009686;28;20047;-62
2022/07/16 07:59:54;;;;;;;;;;;16.40;99.90;;;;;;5017938;28;20053;-64
2022/07/16 08:02:20;;;;;;;6.28;2.28;;;16.60;99.90;;;;;;5021464;28;20007;-62
2022/07/16 08:04:46;;;;;;;;;;;16.40;99.90;;;;;;5002733;28;20042;-62
2022/07/16 08:07:12;;;;;;;7.13;1.38;;;16.40;99.90;;;;;;5018305;28;20383;-64
2022/07/16 08:09:37;;;;;;;;;;;16.30;99.90;;;;;;5014504;28;20303;-63
2022/07/16 08:12:03;;;;;;;6.22;1.52;;;16.50;99.90;;;;;;5017246;28;19932;-68
2022/07/16 08:14:29;;;;;;;;;;;16.80;99.90;;;;;;5019867;28;20046;-64
2022/07/16 08:16:56;;;;;;;9.25;1.55;;;16.50;99.90;;;;;;5020138;28;19928;-65
2022/07/16 08:19:22;;;;;;;3.70;1.27;;;18.60;99.90;;;;;;5014098;28;20137;-62
2022/07/16 08:21:49;;;;;;;7.82;1.60;;;17.10;99.90;;;;;;5019828;28;20077;-61
2022/07/16 08:27:16;;;;;;;7.65;1.10;;;17.20;99.90;;;;;;4960104;28;20168;-61
2022/07/16 08:29:42;;;;;;;;;;;17.20;99.90;;;;;;5009956;28;20132;-62
2022/07/16 08:32:08;;;;;;;3.00;1.00;;;17.50;99.90;;;;;;5015220;28;20016;-61
2022/07/16 08:34:34;;;;;;;;;;;17.40;99.90;;;;;;5021593;28;20460;-61
2022/07/16 08:37:00;;;;;;;6.95;1.45;;;17.30;99.90;;;;;;5019354;28;19925;-59
2022/07/16 08:39:25;;;;;;;5.75;1.40;;;17.00;99.90;;;;;;5016348;28;20049;-64
2022/07/16 08:41:52;;;;;;;;;;;17.10;99.90;;;;;;5019872;28;20406;-63
2022/07/16 08:44:18;;;;;;;7.55;1.52;;;17.10;99.90;;;;;;5021328;28;20376;-61
2022/07/16 08:46:44;;;;;;;;;;;17.20;99.90;;;;;;5019292;28;20125;-68
2022/07/16 08:49:10;;;;;;;6.68;1.40;;;17.30;99.90;;;;;;5016354;28;20650;-64
2022/07/16 08:51:36;;;;;;;;;;;17.50;99.90;;;;;;5019694;28;20054;-63
2022/07/16 08:54:15;;;;;;;6.68;1.17;;;17.60;99.90;;;;;;5021061;28;19921;-63
2022/07/16 08:56:43;;;;;;;5.95;1.20;;;17.80;99.90;;;;;;5012976;28;20474;-64
2022/07/16 08:59:09;;;;;;;6.28;1.25;;;17.80;99.90;;;;;;5015060;28;20046;-62
2022/07/16 09:01:34;;;;;;;;;;;17.70;99.90;;;;;;5021446;28;20046;-64
2022/07/16 09:04:03;;;;;;;5.75;1.40;;;18.00;99.90;;;;;;5019148;28;19921;-65
2022/07/16 09:06:29;;;;;;;3.00;1.25;;;18.40;99.90;;;;;;5020130;28;20080;-63
2022/07/16 09:08:55;;;;;;;6.55;1.25;;;17.90;99.90;;;;;;5019542;28;20061;-64
2022/07/16 09:11:43;;;;;;;7.15;1.23;;;17.60;99.90;;;;;;5018200;28;20049;-64
2022/07/16 09:14:11;;;;;;;6.00;1.80;;;17.90;99.90;;;;;;5018893;28;20049;-63
2022/07/16 09:16:40;;;;;;;8.52;1.30;;;17.90;99.90;;;;;;5021093;28;20053;-65
2022/07/16 09:19:21;;;;;;;5.80;1.42;;;17.60;99.90;;;;;;5014677;28;20387;-64
2022/07/16 09:22:09;;;;;;;3.45;1.20;;;18.40;99.90;;;;;;5018464;28;20122;-64
2022/07/16 09:24:47;;;;;;;7.63;1.30;;;18.30;99.90;;;;;;5013673;28;20165;-64
2022/07/16 09:27:21;;;;;;;8.35;1.77;;;18.30;99.90;;;;;;5009289;28;20128;-67
2022/07/16 09:29:58;;;;;;;5.45;1.10;;;18.50;99.90;;;;;;5009557;28;20057;-63
2022/07/16 09:32:34;;;;;;;5.00;1.10;;;18.40;99.90;;;;;;5011856;28;20050;-64
2022/07/16 09:35:02;;;;;;;7.60;1.50;;;18.60;99.90;;;;;;5011352;28;20051;-64
2022/07/16 09:37:53;;;;;;;5.13;1.20;;;18.20;99.90;;;;;;5011804;28;20130;-64
2022/07/16 09:40:36;;;;;;;7.63;1.45;;;18.50;99.90;;;;;;5011329;28;20506;-64
2022/07/16 09:43:16;;;;;;;10.85;2.63;;;18.40;99.90;;;;;;5011099;28;20109;-64
2022/07/16 09:45:44;;;;;;;8.15;1.48;;;18.40;99.90;;;;;;5010513;28;20088;-64
2022/07/16 09:48:23;;;;;;;6.65;1.45;;;18.70;99.90;;;;;;5010297;28;20053;-64
2022/07/16 09:50:50;;;;;;;7.18;1.40;;;18.80;99.90;;;;;;5021078;28;20081;-66
2022/07/16 09:53:18;;;;;;;7.13;1.50;;;18.50;99.90;;;;;;5033176;28;20061;-65
2022/07/16 09:56:07;;;;;;;4.75;1.42;;;18.10;99.90;;;;;;5035278;28;20049;-64
2022/07/16 09:58:34;;;;;;;4.70;1.42;;;18.80;99.90;;;;;;5035023;28;20045;-64
2022/07/16 10:01:01;;;;;;;7.13;1.50;;;18.60;99.90;;;;;;5035115;28;20099;-64
2022/07/16 10:03:28;;;;;;;12.02;1.90;;;19.00;99.90;;;;;;5030901;28;20046;-64
2022/07/16 10:05:54;;;;;;;7.88;1.40;;;18.60;99.90;;;;;;5014932;28;20053;-65
2022/07/16 10:08:21;;;;;;;15.07;2.13;;;18.20;99.90;;;;;;5014970;28;20054;-66
2022/07/16 10:10:48;;;;;;;5.15;1.60;;;18.40;99.90;;;;;;5015153;28;20054;-67
2022/07/16 10:13:15;;;;;;;5.28;1.35;;;18.60;99.90;;;;;;5014933;28;20038;-65
2022/07/16 10:15:41;;;;;;;6.70;1.75;;;18.40;99.90;;;;;;5015037;28;20135;-65
2022/07/16 10:18:42;;;;;;;8.70;1.52;;;18.60;99.90;;;;;;5014709;28;20053;-66
2022/07/16 10:21:09;;;;;;;10.00;2.00;;;18.70;99.90;;;;;;5013589;28;20045;-65
2022/07/16 10:23:37;;;;;;;7.40;1.52;;;19.10;99.90;;;;;;5014782;28;20053;-65
2022/07/16 10:26:14;;;;;;;6.93;1.75;;;18.90;99.90;;;;;;5014654;28;20054;-66
2022/07/16 10:28:45;;;;;;;7.53;1.45;;;18.80;99.90;;;;;;5014576;28;20375;-66
2022/07/16 10:31:36;;;;;;;16.73;2.22;;;19.60;99.90;;;;;;5014819;28;20141;-65
2022/07/16 10:34:16;;;;;;;7.35;1.85;;;19.10;99.90;;;;;;5014605;28;20046;-67
2022/07/16 10:36:47;;;;;;;9.15;1.70;;;18.70;99.90;;;;;;5014256;28;20568;-66
2022/07/16 10:39:15;;;;;;;8.45;1.42;;;18.50;99.90;;;;;;5014593;28;20096;-66
2022/07/16 10:42:01;;;;;;;6.20;1.77;;;18.60;99.90;;;;;;5014720;28;20088;-66
2022/07/16 10:44:44;;;;;;;8.75;1.60;;;18.90;99.90;;;;;;5014180;28;20096;-65
2022/07/16 10:47:10;;;;;;;5.78;1.17;;;19.20;99.90;;;;;;5014270;28;20046;-65
2022/07/16 10:49:36;;;;;;;6.88;1.23;;;19.20;99.90;;;;;;5014159;28;20159;-65
2022/07/16 10:52:20;;;;;;;7.20;1.77;;;18.80;99.90;;;;;;5014241;28;20501;-66
2022/07/16 10:54:51;;;;;;;6.53;1.30;;;18.40;99.90;;;;;;5014432;28;20085;-65
2022/07/16 10:57:31;;;;;;;6.90;1.85;;;18.50;99.90;;;;;;5013953;28;20470;-65
2022/07/16 10:59:59;;;;;;;10.82;1.13;;;18.80;99.90;;;;;;5013961;28;20054;-66
2022/07/16 11:02:24;;;;;;;7.68;1.20;;;19.20;99.90;;;;;;5014100;28;20057;-66
2022/07/16 11:04:52;;;;;;;5.43;1.38;;;19.40;99.90;;;;;;5013870;28;20054;-65
2022/07/16 11:07:21;;;;;;;5.75;1.17;;;19.40;99.90;;;;;;5013952;28;20052;-65
2022/07/16 11:09:49;;;;;;;8.70;1.42;;;19.40;99.90;;;;;;5013979;28;20430;-67
2022/07/16 11:12:16;;;;;;;7.63;1.27;;;19.50;99.90;;;;;;5013736;28;20054;-66
2022/07/16 11:14:49;;;;;;;6.72;1.35;;;19.50;99.90;;;;;;5013855;28;20054;-66
2022/07/16 11:17:17;;;;;;;7.45;1.23;;;19.60;99.90;;;;;;5013892;28;20046;-66
2022/07/16 11:19:48;;;;;;;9.65;2.22;;;20.00;99.90;;;;;;5013789;28;20073;-65
2022/07/16 11:22:17;;;;;;;7.22;1.70;;;19.70;99.90;;;;;;5013571;28;20057;-66
2022/07/16 11:24:49;;;;;;;6.40;1.75;;;19.30;99.90;;;;;;5013448;28;20042;-66
2022/07/16 11:27:16;;;;;;;7.38;2.25;;;18.90;99.90;;;;;;5013728;28;20054;-65
2022/07/16 11:29:41;;;;;;;4.82;1.48;;;19.20;99.90;;;;;;5013624;28;20129;-65
2022/07/16 11:32:15;;;;;;;3.88;1.00;;;18.60;99.90;;;;;;5013627;28;20046;-65
2022/07/16 11:34:41;;;;;;;10.07;1.77;;;18.00;99.90;;;;;;5013408;28;20057;-65
2022/07/16 11:37:06;;;;;;;12.82;1.58;;;18.90;99.90;;;;;;5013121;28;20069;-66
2022/07/16 11:39:32;;;;;;;8.20;1.40;;;19.20;99.90;;;;;;5013825;28;20064;-66
2022/07/16 11:41:59;;;;;;;9.45;1.70;;;18.50;99.90;;;;;;5013104;28;20060;-65
2022/07/16 11:44:29;;;;;;;7.82;1.42;;;18.30;99.90;;;;;;5012380;28;20444;-67
2022/07/16 11:47:00;;;;;;;6.32;1.58;;;18.40;99.90;;;;;;5013412;28;20056;-65
2022/07/16 11:49:25;;;;;;;8.43;1.67;;;18.30;99.90;;;;;;5011890;28;20053;-66
2022/07/16 11:51:53;;;;;;;9.25;1.60;;;19.00;99.90;;;;;;5011678;28;20088;-67
2022/07/16 11:54:19;;;;;;;10.23;1.60;;;19.50;99.90;;;;;;5012958;28;20121;-65
2022/07/16 11:56:45;;;;;;;6.25;1.45;;;19.10;99.90;;;;;;5013116;28;20521;-65
2022/07/16 11:59:26;;;;;;;5.60;1.38;;;18.80;99.90;;;;;;5012877;28;20042;-65
2022/07/16 12:02:03;;;;;;;6.32;1.50;;;18.80;99.90;;;;;;5013158;28;20054;-67
2022/07/16 12:04:40;;;;;;;5.15;1.23;;;18.70;99.90;;;;;;5013091;28;20056;-65
2022/07/16 12:07:11;;;;;;;3.95;1.20;;;18.70;99.90;;;;;;5012699;28;20050;-65
2022/07/16 12:09:39;;;;;;;5.57;1.40;;;18.80;99.90;;;;;;5012697;28;20208;-65
2022/07/16 12:12:08;;;;;;;6.40;1.10;;;19.20;99.90;;;;;;5012156;28;20056;-66
2022/07/16 12:14:44;;;;;;;10.73;2.10;;;19.20;99.90;;;;;;5012561;28;20454;-65
2022/07/16 12:17:23;;;;;;;5.38;1.23;;;19.50;99.90;;;;;;5012775;28;20045;-65
2022/07/16 12:20:09;;;;;;;7.65;1.42;;;19.40;99.90;;;;;;5012447;28;20413;-66
2022/07/16 12:22:46;;;;;;;3.95;1.20;;;19.80;99.90;;;;;;5012507;28;20048;-67
2022/07/16 12:25:20;;;;;;;6.82;1.30;;;19.50;99.90;;;;;;5012223;28;20470;-67
2022/07/16 12:27:59;;;;;;;5.43;1.20;;;19.60;99.90;;;;;;5012544;28;20490;-67
2022/07/16 12:30:32;;;;;;;4.95;1.35;;;19.90;99.90;;;;;;5012503;28;20050;-67
2022/07/16 12:32:59;;;;;;;5.20;1.23;;;19.80;99.90;;;;;;5012193;28;20056;-65
2022/07/16 12:35:38;;;;;;;4.03;1.20;;;19.70;99.90;;;;;;5012303;28;20104;-66
2022/07/16 12:38:04;;;;;;;5.97;1.38;;;20.30;99.90;;;;;;5012701;28;20051;-65
2022/07/16 12:40:31;;;;;;;4.35;1.00;;;20.10;99.90;;;;;;5012238;28;20088;-65
2022/07/16 12:42:58;;;;;;;4.68;0.95;;;20.00;99.90;;;;;;5012334;28;20042;-65
2022/07/16 12:45:24;;;;;;;3.88;1.13;;;19.90;99.90;;;;;;5011136;28;20060;-64
2022/07/16 12:47:51;;;;;;;6.80;1.13;;;19.50;99.90;;;;;;5012136;28;20092;-65
2022/07/16 12:50:16;;;;;;;5.68;1.13;;;19.50;99.90;;;;;;5009856;28;20559;-66
2022/07/16 12:52:42;;;;;;;8.75;1.50;;;19.50;99.90;;;;;;5030120;28;20160;-66
2022/07/16 13:00:37;;;;;;;7.15;1.63;;;20.30;99.90;;;;;;5031835;28;20528;-66
2022/07/16 13:03:03;;;;;;;7.28;1.45;;;20.10;99.90;;;;;;5031585;28;20089;-63
2022/07/16 13:05:29;;;;;;;3.42;1.30;;;19.80;99.90;;;;;;5031862;28;20072;-67
2022/07/16 13:07:55;;;;;;;5.88;1.30;;;20.50;99.90;;;;;;5031715;28;20482;-63
2022/07/16 13:10:21;;;;;;;7.43;1.42;;;20.50;99.90;;;;;;5031591;28;20104;-65
2022/07/16 13:12:47;;;;;;;6.90;1.40;;;20.70;99.90;;;;;;5031544;28;20057;-66
2022/07/16 13:15:13;;;;;;;9.05;1.40;;;20.90;99.90;;;;;;5031465;28;20089;-67